sensor_id;sensor_type;location;lat;lon;timestamp;P1;durP1;ratioP1;P2;durP2;ratioP2
7479;SDS011;3781;42.272;22.658;2023-01-09T00:00:58;0.93;;;0.93;;
7479;SDS011;3781;42.272;22.658;2023-01-09T00:03:27;1.00;;;1.00;;
7479;SDS011;3781;42.272;22.658;2023-01-09T00:05:54;9.83;;;3.27;;
7479;SDS011;3781;42.272;22.658;2023-01-09T00:08:20;5.03;;;3.53;;
7479;SDS011;3781;42.272;22.658;2023-01-09T00:10:47;0.20;;;0.20;;
7479;SDS011;3781;42.272;22.658;2023-01-09T00:13:14;2.87;;;2.53;;
7479;SDS011;3781;42.272;22.658;2023-01-09T00:15:42;3.80;;;3.33;;
7479;SDS011;3781;42.272;22.658;2023-01-09T00:18:09;4.57;;;3.13;;
7479;SDS011;3781;42.272;22.658;2023-01-09T00:20:37;1.30;;;1.20;;
7479;SDS011;3781;42.272;22.658;2023-01-09T00:23:04;1.93;;;1.37;;
7479;SDS011;3781;42.272;22.658;2023-01-09T00:25:30;5.03;;;2.10;;
7479;SDS011;3781;42.272;22.658;2023-01-09T00:27:57;0.63;;;0.63;;
7479;SDS011;3781;42.272;22.658;2023-01-09T00:30:24;2.23;;;1.97;;
7479;SDS011;3781;42.272;22.658;2023-01-09T00:32:52;1.20;;;1.10;;
7479;SDS011;3781;42.272;22.658;2023-01-09T00:35:19;1.63;;;1.40;;
7479;SDS011;3781;42.272;22.658;2023-01-09T00:37:50;1.20;;;1.13;;
7479;SDS011;3781;42.272;22.658;2023-01-09T00:40:17;1.07;;;1.07;;
7479;SDS011;3781;42.272;22.658;2023-01-09T00:42:45;1.23;;;1.17;;
7479;SDS011;3781;42.272;22.658;2023-01-09T00:45:15;2.07;;;1.27;;
7479;SDS011;3781;42.272;22.658;2023-01-09T00:47:45;2.23;;;1.17;;
7479;SDS011;3781;42.272;22.658;2023-01-09T00:50:16;4.00;;;1.47;;
7479;SDS011;3781;42.272;22.658;2023-01-09T00:52:49;0.87;;;0.40;;
7479;SDS011;3781;42.272;22.658;2023-01-09T00:55:18;0.90;;;0.90;;
7479;SDS011;3781;42.272;22.658;2023-01-09T00:57:45;0.93;;;0.57;;
7479;SDS011;3781;42.272;22.658;2023-01-09T01:00:13;0.50;;;0.47;;
7479;SDS011;3781;42.272;22.658;2023-01-09T01:02:40;1.80;;;1.70;;
7479;SDS011;3781;42.272;22.658;2023-01-09T01:05:07;1.30;;;0.23;;
7479;SDS011;3781;42.272;22.658;2023-01-09T01:07:53;1.90;;;1.80;;
7479;SDS011;3781;42.272;22.658;2023-01-09T01:10:21;0.57;;;0.57;;
7479;SDS011;3781;42.272;22.658;2023-01-09T01:12:50;2.33;;;0.87;;
7479;SDS011;3781;42.272;22.658;2023-01-09T01:15:17;0.93;;;0.93;;
7479;SDS011;3781;42.272;22.658;2023-01-09T01:17:45;1.67;;;0.43;;
7479;SDS011;3781;42.272;22.658;2023-01-09T01:20:13;0.93;;;0.73;;
7479;SDS011;3781;42.272;22.658;2023-01-09T01:22:41;3.80;;;1.13;;
7479;SDS011;3781;42.272;22.658;2023-01-09T01:25:09;4.93;;;1.57;;
7479;SDS011;3781;42.272;22.658;2023-01-09T01:27:37;1.70;;;1.60;;
7479;SDS011;3781;42.272;22.658;2023-01-09T01:30:05;1.20;;;1.13;;
7479;SDS011;3781;42.272;22.658;2023-01-09T01:32:33;0.63;;;0.63;;
7479;SDS011;3781;42.272;22.658;2023-01-09T01:35:00;1.93;;;0.20;;
7479;SDS011;3781;42.272;22.658;2023-01-09T01:37:27;0.50;;;0.50;;
7479;SDS011;3781;42.272;22.658;2023-01-09T01:39:53;2.17;;;0.93;;
7479;SDS011;3781;42.272;22.658;2023-01-09T01:42:21;1.20;;;1.17;;
7479;SDS011;3781;42.272;22.658;2023-01-09T01:44:56;0.57;;;0.57;;
7479;SDS011;3781;42.272;22.658;2023-01-09T01:47:27;1.23;;;1.17;;
7479;SDS011;3781;42.272;22.658;2023-01-09T01:49:58;0.93;;;0.93;;
7479;SDS011;3781;42.272;22.658;2023-01-09T01:52:27;0.97;;;0.97;;
7479;SDS011;3781;42.272;22.658;2023-01-09T01:54:57;1.07;;;1.07;;
7479;SDS011;3781;42.272;22.658;2023-01-09T01:57:26;2.33;;;2.13;;
7479;SDS011;3781;42.272;22.658;2023-01-09T01:59:53;3.80;;;1.40;;
7479;SDS011;3781;42.272;22.658;2023-01-09T02:02:24;0.60;;;0.60;;
7479;SDS011;3781;42.272;22.658;2023-01-09T02:04:56;1.27;;;0.77;;
7479;SDS011;3781;42.272;22.658;2023-01-09T02:07:25;1.23;;;0.47;;
7479;SDS011;3781;42.272;22.658;2023-01-09T02:09:52;2.33;;;2.20;;
7479;SDS011;3781;42.272;22.658;2023-01-09T02:12:20;1.50;;;0.97;;
7479;SDS011;3781;42.272;22.658;2023-01-09T02:14:50;0.80;;;0.80;;
7479;SDS011;3781;42.272;22.658;2023-01-09T02:17:36;3.00;;;2.27;;
7479;SDS011;3781;42.272;22.658;2023-01-09T02:23:31;1.70;;;1.60;;
7479;SDS011;3781;42.272;22.658;2023-01-09T02:26:28;10.10;;;1.27;;
7479;SDS011;3781;42.272;22.658;2023-01-09T02:32:13;0.63;;;0.63;;
7479;SDS011;3781;42.272;22.658;2023-01-09T02:34:51;5.30;;;1.30;;
7479;SDS011;3781;42.272;22.658;2023-01-09T02:37:29;3.83;;;1.80;;
7479;SDS011;3781;42.272;22.658;2023-01-09T02:40:02;2.33;;;1.67;;
7479;SDS011;3781;42.272;22.658;2023-01-09T02:42:34;2.30;;;0.80;;
7479;SDS011;3781;42.272;22.658;2023-01-09T02:45:03;7.90;;;1.13;;
7479;SDS011;3781;42.272;22.658;2023-01-09T02:47:36;3.87;;;1.33;;
7479;SDS011;3781;42.272;22.658;2023-01-09T02:50:06;1.53;;;1.43;;
7479;SDS011;3781;42.272;22.658;2023-01-09T02:52:41;0.10;;;0.10;;
7479;SDS011;3781;42.272;22.658;2023-01-09T02:55:24;1.50;;;1.40;;
7479;SDS011;3781;42.272;22.658;2023-01-09T02:58:08;0.40;;;0.40;;
7479;SDS011;3781;42.272;22.658;2023-01-09T03:00:43;4.30;;;1.33;;
7479;SDS011;3781;42.272;22.658;2023-01-09T03:03:17;4.53;;;2.50;;
7479;SDS011;3781;42.272;22.658;2023-01-09T03:05:50;0.83;;;0.83;;
7479;SDS011;3781;42.272;22.658;2023-01-09T03:08:25;0.97;;;0.90;;
7479;SDS011;3781;42.272;22.658;2023-01-09T03:10:58;2.50;;;2.30;;
7479;SDS011;3781;42.272;22.658;2023-01-09T03:13:29;2.23;;;2.03;;
7479;SDS011;3781;42.272;22.658;2023-01-09T03:15:59;1.33;;;1.33;;
7479;SDS011;3781;42.272;22.658;2023-01-09T03:18:32;0.87;;;0.87;;
7479;SDS011;3781;42.272;22.658;2023-01-09T03:21:02;1.00;;;0.97;;
7479;SDS011;3781;42.272;22.658;2023-01-09T03:23:44;1.63;;;1.20;;
7479;SDS011;3781;42.272;22.658;2023-01-09T03:26:12;2.13;;;1.70;;
7479;SDS011;3781;42.272;22.658;2023-01-09T03:28:39;2.23;;;1.90;;
7479;SDS011;3781;42.272;22.658;2023-01-09T03:31:05;1.17;;;1.17;;
7479;SDS011;3781;42.272;22.658;2023-01-09T03:33:33;1.10;;;1.10;;
7479;SDS011;3781;42.272;22.658;2023-01-09T03:36:00;2.27;;;2.10;;
7479;SDS011;3781;42.272;22.658;2023-01-09T03:38:27;2.13;;;1.73;;
7479;SDS011;3781;42.272;22.658;2023-01-09T03:40:54;0.97;;;0.97;;
7479;SDS011;3781;42.272;22.658;2023-01-09T03:43:20;1.03;;;0.93;;
7479;SDS011;3781;42.272;22.658;2023-01-09T03:45:47;2.67;;;1.90;;
7479;SDS011;3781;42.272;22.658;2023-01-09T03:48:14;2.27;;;2.07;;
7479;SDS011;3781;42.272;22.658;2023-01-09T03:50:42;1.83;;;1.73;;
7479;SDS011;3781;42.272;22.658;2023-01-09T03:53:11;1.60;;;1.50;;
7479;SDS011;3781;42.272;22.658;2023-01-09T03:55:38;2.40;;;2.30;;
7479;SDS011;3781;42.272;22.658;2023-01-09T03:58:05;0.83;;;0.83;;
7479;SDS011;3781;42.272;22.658;2023-01-09T04:00:31;1.73;;;1.63;;
7479;SDS011;3781;42.272;22.658;2023-01-09T04:02:58;2.43;;;1.87;;
7479;SDS011;3781;42.272;22.658;2023-01-09T04:05:25;1.43;;;1.33;;
7479;SDS011;3781;42.272;22.658;2023-01-09T04:07:53;3.40;;;0.73;;
7479;SDS011;3781;42.272;22.658;2023-01-09T04:10:20;0.50;;;0.20;;
7479;SDS011;3781;42.272;22.658;2023-01-09T04:12:47;1.17;;;1.03;;
7479;SDS011;3781;42.272;22.658;2023-01-09T04:15:13;5.13;;;0.57;;
7479;SDS011;3781;42.272;22.658;2023-01-09T04:17:40;2.43;;;1.53;;
7479;SDS011;3781;42.272;22.658;2023-01-09T04:20:07;1.90;;;1.63;;
7479;SDS011;3781;42.272;22.658;2023-01-09T04:22:35;3.70;;;1.60;;
7479;SDS011;3781;42.272;22.658;2023-01-09T04:25:04;1.90;;;1.43;;
7479;SDS011;3781;42.272;22.658;2023-01-09T04:27:31;5.73;;;2.57;;
7479;SDS011;3781;42.272;22.658;2023-01-09T04:29:58;0.50;;;0.50;;
7479;SDS011;3781;42.272;22.658;2023-01-09T04:32:25;1.70;;;1.37;;
7479;SDS011;3781;42.272;22.658;2023-01-09T04:34:52;1.60;;;1.57;;
7479;SDS011;3781;42.272;22.658;2023-01-09T04:37:19;1.47;;;1.33;;
7479;SDS011;3781;42.272;22.658;2023-01-09T04:39:46;1.73;;;1.60;;
7479;SDS011;3781;42.272;22.658;2023-01-09T04:42:14;0.87;;;0.87;;
7479;SDS011;3781;42.272;22.658;2023-01-09T04:44:41;3.57;;;2.60;;
7479;SDS011;3781;42.272;22.658;2023-01-09T04:47:08;1.87;;;1.77;;
7479;SDS011;3781;42.272;22.658;2023-01-09T04:49:37;3.80;;;1.80;;
7479;SDS011;3781;42.272;22.658;2023-01-09T04:52:04;0.23;;;0.23;;
7479;SDS011;3781;42.272;22.658;2023-01-09T04:54:31;1.23;;;1.23;;
7479;SDS011;3781;42.272;22.658;2023-01-09T04:56:58;7.10;;;2.27;;
7479;SDS011;3781;42.272;22.658;2023-01-09T04:59:26;1.80;;;1.43;;
7479;SDS011;3781;42.272;22.658;2023-01-09T05:01:53;2.63;;;1.43;;
7479;SDS011;3781;42.272;22.658;2023-01-09T05:04:22;6.10;;;1.93;;
7479;SDS011;3781;42.272;22.658;2023-01-09T05:06:49;3.20;;;2.73;;
7479;SDS011;3781;42.272;22.658;2023-01-09T05:09:16;0.20;;;0.20;;
7479;SDS011;3781;42.272;22.658;2023-01-09T05:11:42;2.33;;;1.40;;
7479;SDS011;3781;42.272;22.658;2023-01-09T05:14:09;8.17;;;2.23;;
7479;SDS011;3781;42.272;22.658;2023-01-09T05:16:38;1.20;;;1.07;;
7479;SDS011;3781;42.272;22.658;2023-01-09T05:19:05;1.40;;;1.23;;
7479;SDS011;3781;42.272;22.658;2023-01-09T05:21:31;2.10;;;2.00;;
7479;SDS011;3781;42.272;22.658;2023-01-09T05:23:58;5.03;;;4.63;;
7479;SDS011;3781;42.272;22.658;2023-01-09T05:26:25;3.40;;;1.60;;
7479;SDS011;3781;42.272;22.658;2023-01-09T05:28:52;1.63;;;1.17;;
7479;SDS011;3781;42.272;22.658;2023-01-09T05:31:20;6.80;;;2.57;;
7479;SDS011;3781;42.272;22.658;2023-01-09T05:33:49;8.03;;;4.63;;
7479;SDS011;3781;42.272;22.658;2023-01-09T05:36:16;5.00;;;1.13;;
7479;SDS011;3781;42.272;22.658;2023-01-09T05:38:42;1.47;;;0.77;;
7479;SDS011;3781;42.272;22.658;2023-01-09T05:41:09;3.80;;;1.03;;
7479;SDS011;3781;42.272;22.658;2023-01-09T05:43:36;0.53;;;0.53;;
7479;SDS011;3781;42.272;22.658;2023-01-09T05:46:03;4.07;;;1.77;;
7479;SDS011;3781;42.272;22.658;2023-01-09T05:48:30;1.97;;;0.87;;
7479;SDS011;3781;42.272;22.658;2023-01-09T05:50:58;2.90;;;1.60;;
7479;SDS011;3781;42.272;22.658;2023-01-09T05:53:25;4.77;;;1.00;;
7479;SDS011;3781;42.272;22.658;2023-01-09T05:55:51;5.00;;;2.40;;
7479;SDS011;3781;42.272;22.658;2023-01-09T05:58:18;2.67;;;2.47;;
7479;SDS011;3781;42.272;22.658;2023-01-09T06:00:45;2.47;;;2.17;;
7479;SDS011;3781;42.272;22.658;2023-01-09T06:03:12;1.90;;;1.80;;
7479;SDS011;3781;42.272;22.658;2023-01-09T06:10:52;0.87;;;0.87;;
7479;SDS011;3781;42.272;22.658;2023-01-09T06:13:18;8.83;;;3.90;;
7479;SDS011;3781;42.272;22.658;2023-01-09T06:15:46;4.57;;;4.17;;
7479;SDS011;3781;42.272;22.658;2023-01-09T06:18:13;4.73;;;2.87;;
7479;SDS011;3781;42.272;22.658;2023-01-09T06:20:39;5.23;;;1.73;;
7479;SDS011;3781;42.272;22.658;2023-01-09T06:23:06;8.43;;;3.70;;
7479;SDS011;3781;42.272;22.658;2023-01-09T06:25:33;7.83;;;1.53;;
7479;SDS011;3781;42.272;22.658;2023-01-09T06:28:01;3.43;;;2.53;;
7479;SDS011;3781;42.272;22.658;2023-01-09T06:30:28;2.33;;;1.67;;
7479;SDS011;3781;42.272;22.658;2023-01-09T06:32:54;14.50;;;2.97;;
7479;SDS011;3781;42.272;22.658;2023-01-09T06:35:21;2.47;;;2.27;;
7479;SDS011;3781;42.272;22.658;2023-01-09T06:37:48;4.70;;;1.30;;
7479;SDS011;3781;42.272;22.658;2023-01-09T06:40:15;4.30;;;1.20;;
7479;SDS011;3781;42.272;22.658;2023-01-09T06:42:42;3.00;;;2.30;;
7479;SDS011;3781;42.272;22.658;2023-01-09T06:45:11;2.50;;;2.20;;
7479;SDS011;3781;42.272;22.658;2023-01-09T06:47:38;0.73;;;0.70;;
7479;SDS011;3781;42.272;22.658;2023-01-09T06:50:06;1.23;;;1.13;;
7479;SDS011;3781;42.272;22.658;2023-01-09T06:52:34;4.03;;;2.37;;
7479;SDS011;3781;42.272;22.658;2023-01-09T06:55:01;1.40;;;1.33;;
7479;SDS011;3781;42.272;22.658;2023-01-09T06:57:28;1.53;;;1.43;;
7479;SDS011;3781;42.272;22.658;2023-01-09T06:59:54;3.17;;;2.50;;
7479;SDS011;3781;42.272;22.658;2023-01-09T07:02:23;3.47;;;3.17;;
7479;SDS011;3781;42.272;22.658;2023-01-09T07:04:50;2.90;;;2.67;;
7479;SDS011;3781;42.272;22.658;2023-01-09T07:07:16;2.97;;;2.73;;
7479;SDS011;3781;42.272;22.658;2023-01-09T07:09:44;8.93;;;3.30;;
7479;SDS011;3781;42.272;22.658;2023-01-09T07:12:11;5.60;;;4.73;;
7479;SDS011;3781;42.272;22.658;2023-01-09T07:14:39;17.80;;;6.67;;
7479;SDS011;3781;42.272;22.658;2023-01-09T07:17:05;7.83;;;5.77;;
7479;SDS011;3781;42.272;22.658;2023-01-09T07:19:34;7.30;;;5.67;;
7479;SDS011;3781;42.272;22.658;2023-01-09T07:22:00;6.47;;;5.13;;
7479;SDS011;3781;42.272;22.658;2023-01-09T07:24:27;25.60;;;8.73;;
7479;SDS011;3781;42.272;22.658;2023-01-09T07:26:54;15.90;;;10.60;;
7479;SDS011;3781;42.272;22.658;2023-01-09T07:29:20;12.40;;;7.07;;
7479;SDS011;3781;42.272;22.658;2023-01-09T07:31:47;15.60;;;8.73;;
7479;SDS011;3781;42.272;22.658;2023-01-09T07:34:14;22.83;;;11.83;;
7479;SDS011;3781;42.272;22.658;2023-01-09T07:36:42;24.83;;;12.03;;
7479;SDS011;3781;42.272;22.658;2023-01-09T07:39:10;19.90;;;10.90;;
7479;SDS011;3781;42.272;22.658;2023-01-09T07:41:37;17.23;;;11.40;;
7479;SDS011;3781;42.272;22.658;2023-01-09T07:44:04;16.00;;;13.80;;
7479;SDS011;3781;42.272;22.658;2023-01-09T07:46:31;37.37;;;15.10;;
7479;SDS011;3781;42.272;22.658;2023-01-09T07:48:58;15.47;;;9.97;;
7479;SDS011;3781;42.272;22.658;2023-01-09T07:51:25;24.97;;;14.30;;
7479;SDS011;3781;42.272;22.658;2023-01-09T07:53:53;26.07;;;13.30;;
7479;SDS011;3781;42.272;22.658;2023-01-09T07:56:19;27.13;;;12.60;;
7479;SDS011;3781;42.272;22.658;2023-01-09T07:58:46;21.57;;;12.17;;
7479;SDS011;3781;42.272;22.658;2023-01-09T08:01:13;25.17;;;13.03;;
7479;SDS011;3781;42.272;22.658;2023-01-09T08:03:40;36.43;;;16.03;;
7479;SDS011;3781;42.272;22.658;2023-01-09T08:06:07;67.03;;;25.63;;
7479;SDS011;3781;42.272;22.658;2023-01-09T08:08:34;45.47;;;21.03;;
7479;SDS011;3781;42.272;22.658;2023-01-09T08:11:02;36.23;;;19.60;;
7479;SDS011;3781;42.272;22.658;2023-01-09T08:13:29;35.13;;;17.10;;
7479;SDS011;3781;42.272;22.658;2023-01-09T08:15:56;35.13;;;18.63;;
7479;SDS011;3781;42.272;22.658;2023-01-09T08:18:22;45.77;;;20.20;;
7479;SDS011;3781;42.272;22.658;2023-01-09T08:20:49;49.23;;;23.87;;
7479;SDS011;3781;42.272;22.658;2023-01-09T08:23:16;45.70;;;19.57;;
7479;SDS011;3781;42.272;22.658;2023-01-09T08:25:43;39.07;;;19.80;;
7479;SDS011;3781;42.272;22.658;2023-01-09T08:28:11;55.33;;;19.90;;
7479;SDS011;3781;42.272;22.658;2023-01-09T08:30:38;37.13;;;21.13;;
7479;SDS011;3781;42.272;22.658;2023-01-09T08:33:05;54.00;;;24.93;;
7479;SDS011;3781;42.272;22.658;2023-01-09T08:35:31;38.13;;;21.70;;
7479;SDS011;3781;42.272;22.658;2023-01-09T08:37:59;62.27;;;24.90;;
7479;SDS011;3781;42.272;22.658;2023-01-09T08:40:26;62.37;;;27.63;;
7479;SDS011;3781;42.272;22.658;2023-01-09T08:42:52;44.90;;;20.90;;
7479;SDS011;3781;42.272;22.658;2023-01-09T08:45:38;29.27;;;14.87;;
7479;SDS011;3781;42.272;22.658;2023-01-09T08:48:22;25.47;;;14.17;;
7479;SDS011;3781;42.272;22.658;2023-01-09T08:50:48;32.40;;;14.83;;
7479;SDS011;3781;42.272;22.658;2023-01-09T08:53:16;34.03;;;15.67;;
7479;SDS011;3781;42.272;22.658;2023-01-09T08:55:43;30.23;;;15.87;;
7479;SDS011;3781;42.272;22.658;2023-01-09T08:58:09;38.97;;;19.00;;
7479;SDS011;3781;42.272;22.658;2023-01-09T09:00:38;62.90;;;24.80;;
7479;SDS011;3781;42.272;22.658;2023-01-09T09:03:05;45.27;;;18.80;;
7479;SDS011;3781;42.272;22.658;2023-01-09T09:05:31;20.43;;;12.03;;
7479;SDS011;3781;42.272;22.658;2023-01-09T09:07:58;23.03;;;12.03;;
7479;SDS011;3781;42.272;22.658;2023-01-09T09:10:27;18.07;;;11.10;;
7479;SDS011;3781;42.272;22.658;2023-01-09T09:12:55;25.37;;;11.03;;
7479;SDS011;3781;42.272;22.658;2023-01-09T09:15:23;18.77;;;10.13;;
7479;SDS011;3781;42.272;22.658;2023-01-09T09:17:52;23.23;;;9.70;;
7479;SDS011;3781;42.272;22.658;2023-01-09T09:20:20;26.80;;;11.30;;
7479;SDS011;3781;42.272;22.658;2023-01-09T09:22:47;23.37;;;11.33;;
7479;SDS011;3781;42.272;22.658;2023-01-09T09:25:14;30.40;;;14.83;;
7479;SDS011;3781;42.272;22.658;2023-01-09T09:27:42;25.97;;;12.30;;
7479;SDS011;3781;42.272;22.658;2023-01-09T09:30:09;25.90;;;14.33;;
7479;SDS011;3781;42.272;22.658;2023-01-09T09:32:38;45.33;;;16.73;;
7479;SDS011;3781;42.272;22.658;2023-01-09T09:35:07;42.37;;;18.80;;
7479;SDS011;3781;42.272;22.658;2023-01-09T09:37:35;35.47;;;18.47;;
7479;SDS011;3781;42.272;22.658;2023-01-09T09:40:02;37.03;;;18.80;;
7479;SDS011;3781;42.272;22.658;2023-01-09T09:42:37;64.57;;;23.40;;
7479;SDS011;3781;42.272;22.658;2023-01-09T09:45:35;47.67;;;21.77;;
7479;SDS011;3781;42.272;22.658;2023-01-09T09:48:12;43.60;;;21.77;;
7479;SDS011;3781;42.272;22.658;2023-01-09T09:50:56;38.50;;;20.37;;
7479;SDS011;3781;42.272;22.658;2023-01-09T09:53:39;52.80;;;23.57;;
7479;SDS011;3781;42.272;22.658;2023-01-09T09:56:13;37.27;;;20.70;;
7479;SDS011;3781;42.272;22.658;2023-01-09T09:58:43;32.73;;;16.87;;
7479;SDS011;3781;42.272;22.658;2023-01-09T10:01:14;30.00;;;14.20;;
7479;SDS011;3781;42.272;22.658;2023-01-09T10:03:45;33.90;;;15.00;;
7479;SDS011;3781;42.272;22.658;2023-01-09T10:06:18;22.23;;;13.67;;
7479;SDS011;3781;42.272;22.658;2023-01-09T10:08:52;28.10;;;13.93;;
7479;SDS011;3781;42.272;22.658;2023-01-09T10:11:27;17.97;;;12.00;;
7479;SDS011;3781;42.272;22.658;2023-01-09T10:13:58;8.07;;;6.70;;
7479;SDS011;3781;42.272;22.658;2023-01-09T10:16:44;6.20;;;3.50;;
7479;SDS011;3781;42.272;22.658;2023-01-09T10:19:27;5.17;;;3.67;;
7479;SDS011;3781;42.272;22.658;2023-01-09T10:22:08;7.90;;;4.90;;
7479;SDS011;3781;42.272;22.658;2023-01-09T10:24:46;8.27;;;4.40;;
7479;SDS011;3781;42.272;22.658;2023-01-09T10:27:24;5.43;;;4.73;;
7479;SDS011;3781;42.272;22.658;2023-01-09T10:30:03;10.67;;;4.33;;
7479;SDS011;3781;42.272;22.658;2023-01-09T10:32:50;4.93;;;2.50;;
7479;SDS011;3781;42.272;22.658;2023-01-09T10:35:31;4.27;;;2.40;;
7479;SDS011;3781;42.272;22.658;2023-01-09T10:38:12;5.10;;;2.70;;
7479;SDS011;3781;42.272;22.658;2023-01-09T10:40:44;15.67;;;8.93;;
7479;SDS011;3781;42.272;22.658;2023-01-09T10:43:18;4.93;;;3.43;;
7479;SDS011;3781;42.272;22.658;2023-01-09T10:45:55;10.43;;;3.87;;
7479;SDS011;3781;42.272;22.658;2023-01-09T10:48:27;4.97;;;4.03;;
7479;SDS011;3781;42.272;22.658;2023-01-09T10:50:58;7.60;;;3.77;;
7479;SDS011;3781;42.272;22.658;2023-01-09T10:53:27;9.63;;;4.13;;
7479;SDS011;3781;42.272;22.658;2023-01-09T10:56:00;11.57;;;4.57;;
7479;SDS011;3781;42.272;22.658;2023-01-09T10:58:32;8.23;;;3.83;;
7479;SDS011;3781;42.272;22.658;2023-01-09T11:00:59;14.67;;;3.67;;
7479;SDS011;3781;42.272;22.658;2023-01-09T11:03:27;5.63;;;3.70;;
7479;SDS011;3781;42.272;22.658;2023-01-09T11:05:55;5.87;;;3.30;;
7479;SDS011;3781;42.272;22.658;2023-01-09T11:08:25;6.87;;;4.87;;
7479;SDS011;3781;42.272;22.658;2023-01-09T11:10:58;10.47;;;5.57;;
7479;SDS011;3781;42.272;22.658;2023-01-09T11:13:27;7.13;;;3.63;;
7479;SDS011;3781;42.272;22.658;2023-01-09T11:18:28;22.50;;;5.70;;
7479;SDS011;3781;42.272;22.658;2023-01-09T11:20:55;5.50;;;4.37;;
7479;SDS011;3781;42.272;22.658;2023-01-09T11:23:38;9.07;;;4.07;;
7479;SDS011;3781;42.272;22.658;2023-01-09T11:26:08;9.77;;;5.90;;
7479;SDS011;3781;42.272;22.658;2023-01-09T11:28:50;7.90;;;3.47;;
7479;SDS011;3781;42.272;22.658;2023-01-09T11:31:30;8.23;;;5.17;;
7479;SDS011;3781;42.272;22.658;2023-01-09T11:33:56;14.87;;;4.87;;
7479;SDS011;3781;42.272;22.658;2023-01-09T11:36:23;7.20;;;3.97;;
7479;SDS011;3781;42.272;22.658;2023-01-09T11:38:53;8.83;;;3.93;;
7479;SDS011;3781;42.272;22.658;2023-01-09T11:41:21;5.60;;;4.37;;
7479;SDS011;3781;42.272;22.658;2023-01-09T11:43:50;10.60;;;5.60;;
7479;SDS011;3781;42.272;22.658;2023-01-09T11:46:30;7.80;;;4.83;;
7479;SDS011;3781;42.272;22.658;2023-01-09T11:48:59;6.47;;;4.00;;
7479;SDS011;3781;42.272;22.658;2023-01-09T11:51:28;7.67;;;3.53;;
7479;SDS011;3781;42.272;22.658;2023-01-09T11:53:59;7.70;;;4.07;;
7479;SDS011;3781;42.272;22.658;2023-01-09T11:56:33;5.33;;;3.30;;
7479;SDS011;3781;42.272;22.658;2023-01-09T11:59:04;7.70;;;3.33;;
7479;SDS011;3781;42.272;22.658;2023-01-09T12:01:50;10.30;;;5.50;;
7479;SDS011;3781;42.272;22.658;2023-01-09T12:04:26;7.80;;;4.07;;
7479;SDS011;3781;42.272;22.658;2023-01-09T12:07:13;14.47;;;6.57;;
7479;SDS011;3781;42.272;22.658;2023-01-09T12:10:14;10.97;;;5.57;;
7479;SDS011;3781;42.272;22.658;2023-01-09T12:12:56;19.53;;;7.27;;
7479;SDS011;3781;42.272;22.658;2023-01-09T12:15:32;9.73;;;3.67;;
7479;SDS011;3781;42.272;22.658;2023-01-09T12:18:09;11.40;;;4.70;;
7479;SDS011;3781;42.272;22.658;2023-01-09T12:21:16;9.13;;;3.77;;
7479;SDS011;3781;42.272;22.658;2023-01-09T12:27:03;5.97;;;2.47;;
7479;SDS011;3781;42.272;22.658;2023-01-09T12:29:48;5.47;;;2.93;;
7479;SDS011;3781;42.272;22.658;2023-01-09T12:32:28;5.07;;;2.77;;
7479;SDS011;3781;42.272;22.658;2023-01-09T12:35:03;5.47;;;3.17;;
7479;SDS011;3781;42.272;22.658;2023-01-09T12:37:43;5.73;;;3.13;;
7479;SDS011;3781;42.272;22.658;2023-01-09T12:40:23;5.73;;;2.70;;
7479;SDS011;3781;42.272;22.658;2023-01-09T12:43:05;3.37;;;2.70;;
7479;SDS011;3781;42.272;22.658;2023-01-09T12:45:42;3.97;;;3.33;;
7479;SDS011;3781;42.272;22.658;2023-01-09T12:48:25;2.13;;;1.80;;
7479;SDS011;3781;42.272;22.658;2023-01-09T12:51:08;1.90;;;1.47;;
7479;SDS011;3781;42.272;22.658;2023-01-09T12:53:45;5.20;;;2.27;;
7479;SDS011;3781;42.272;22.658;2023-01-09T12:56:18;4.97;;;2.57;;
7479;SDS011;3781;42.272;22.658;2023-01-09T12:58:51;4.80;;;2.97;;
7479;SDS011;3781;42.272;22.658;2023-01-09T13:01:21;1.93;;;1.83;;
7479;SDS011;3781;42.272;22.658;2023-01-09T13:03:55;8.70;;;4.60;;
7479;SDS011;3781;42.272;22.658;2023-01-09T13:06:27;3.33;;;3.03;;
7479;SDS011;3781;42.272;22.658;2023-01-09T13:08:58;10.07;;;4.00;;
7479;SDS011;3781;42.272;22.658;2023-01-09T13:11:33;4.37;;;3.00;;
7479;SDS011;3781;42.272;22.658;2023-01-09T13:14:09;3.23;;;2.53;;
7479;SDS011;3781;42.272;22.658;2023-01-09T13:16:42;4.13;;;2.60;;
7479;SDS011;3781;42.272;22.658;2023-01-09T13:19:13;3.00;;;2.67;;
7479;SDS011;3781;42.272;22.658;2023-01-09T13:21:44;13.30;;;6.63;;
7479;SDS011;3781;42.272;22.658;2023-01-09T13:24:12;11.23;;;5.90;;
7479;SDS011;3781;42.272;22.658;2023-01-09T13:26:44;7.53;;;4.77;;
7479;SDS011;3781;42.272;22.658;2023-01-09T13:29:16;6.27;;;4.13;;
7479;SDS011;3781;42.272;22.658;2023-01-09T13:31:56;5.10;;;4.37;;
7479;SDS011;3781;42.272;22.658;2023-01-09T13:34:38;6.30;;;3.53;;
7479;SDS011;3781;42.272;22.658;2023-01-09T13:37:14;2.90;;;2.47;;
7479;SDS011;3781;42.272;22.658;2023-01-09T13:39:53;8.33;;;4.53;;
7479;SDS011;3781;42.272;22.658;2023-01-09T13:42:22;18.27;;;8.57;;
7479;SDS011;3781;42.272;22.658;2023-01-09T13:45:17;8.73;;;4.07;;
7479;SDS011;3781;42.272;22.658;2023-01-09T13:47:46;10.20;;;5.90;;
7479;SDS011;3781;42.272;22.658;2023-01-09T13:50:33;14.57;;;6.43;;
7479;SDS011;3781;42.272;22.658;2023-01-09T13:53:10;9.53;;;4.93;;
7479;SDS011;3781;42.272;22.658;2023-01-09T13:56:10;6.63;;;4.00;;
7479;SDS011;3781;42.272;22.658;2023-01-09T13:58:58;28.17;;;11.87;;
7479;SDS011;3781;42.272;22.658;2023-01-09T14:01:41;13.13;;;6.60;;
7479;SDS011;3781;42.272;22.658;2023-01-09T14:09:56;10.40;;;6.63;;
7479;SDS011;3781;42.272;22.658;2023-01-09T14:12:25;8.37;;;3.77;;
7479;SDS011;3781;42.272;22.658;2023-01-09T14:14:54;9.17;;;4.17;;
7479;SDS011;3781;42.272;22.658;2023-01-09T14:17:26;8.23;;;3.47;;
7479;SDS011;3781;42.272;22.658;2023-01-09T14:19:57;5.53;;;3.20;;
7479;SDS011;3781;42.272;22.658;2023-01-09T14:22:26;6.27;;;3.30;;
7479;SDS011;3781;42.272;22.658;2023-01-09T14:24:58;4.07;;;2.93;;
7479;SDS011;3781;42.272;22.658;2023-01-09T14:30:34;3.97;;;2.97;;
7479;SDS011;3781;42.272;22.658;2023-01-09T14:33:16;5.90;;;2.33;;
7479;SDS011;3781;42.272;22.658;2023-01-09T14:35:51;4.63;;;3.07;;
7479;SDS011;3781;42.272;22.658;2023-01-09T14:38:27;5.00;;;3.43;;
7479;SDS011;3781;42.272;22.658;2023-01-09T14:41:00;5.80;;;3.50;;
7479;SDS011;3781;42.272;22.658;2023-01-09T14:43:37;3.27;;;2.37;;
7479;SDS011;3781;42.272;22.658;2023-01-09T14:46:10;2.17;;;1.80;;
7479;SDS011;3781;42.272;22.658;2023-01-09T14:48:52;2.63;;;2.07;;
7479;SDS011;3781;42.272;22.658;2023-01-09T14:51:25;1.80;;;1.63;;
7479;SDS011;3781;42.272;22.658;2023-01-09T14:53:56;4.17;;;2.30;;
7479;SDS011;3781;42.272;22.658;2023-01-09T14:56:26;2.00;;;1.80;;
7479;SDS011;3781;42.272;22.658;2023-01-09T14:59:04;1.77;;;1.57;;
7479;SDS011;3781;42.272;22.658;2023-01-09T15:01:35;3.20;;;2.60;;
7479;SDS011;3781;42.272;22.658;2023-01-09T15:04:09;7.27;;;4.60;;
7479;SDS011;3781;42.272;22.658;2023-01-09T15:06:47;6.50;;;3.80;;
7479;SDS011;3781;42.272;22.658;2023-01-09T15:09:16;7.27;;;6.47;;
7479;SDS011;3781;42.272;22.658;2023-01-09T15:11:47;13.23;;;4.83;;
7479;SDS011;3781;42.272;22.658;2023-01-09T15:14:16;3.73;;;3.47;;
7479;SDS011;3781;42.272;22.658;2023-01-09T15:16:54;10.67;;;4.33;;
7479;SDS011;3781;42.272;22.658;2023-01-09T15:19:23;8.87;;;2.13;;
7479;SDS011;3781;42.272;22.658;2023-01-09T15:21:56;2.83;;;2.13;;
7479;SDS011;3781;42.272;22.658;2023-01-09T15:24:29;3.33;;;1.93;;
7479;SDS011;3781;42.272;22.658;2023-01-09T15:26:59;3.53;;;2.97;;
7479;SDS011;3781;42.272;22.658;2023-01-09T15:29:27;2.67;;;2.43;;
7479;SDS011;3781;42.272;22.658;2023-01-09T15:31:56;4.40;;;1.93;;
7479;SDS011;3781;42.272;22.658;2023-01-09T15:34:29;2.63;;;1.73;;
7479;SDS011;3781;42.272;22.658;2023-01-09T15:36:57;3.33;;;2.50;;
7479;SDS011;3781;42.272;22.658;2023-01-09T15:39:28;6.53;;;2.23;;
7479;SDS011;3781;42.272;22.658;2023-01-09T15:41:58;2.77;;;2.57;;
7479;SDS011;3781;42.272;22.658;2023-01-09T15:44:43;4.00;;;2.27;;